Pearl Of Scandinavia — OWFU2 — position and weather

sailwx.info

Track history (hours):
 
Tides and Currents Weather Stations Pressure Air Temp Water Temp Dewpoint Dewpoint Depression Visibility Wind Speed Wind Dir Waves Ship Positions

Pearl Of Scandinavia

Last reported at 2019-Nov-20 08:30 UTC. Time now 2019-Nov-20 09:19 UTC.
Position N 59°54' E 010°45'.

Length 176.4 m; beam 34 m; draft 6.215 m.

Type: Ship. MMSI: 219945000.

Date/timePositionNaut miles runAvg speedWind from/ knotsBaromVisibWave heightAir tempDewpointWater temp
2019-Nov-20 08:30N 59°54' E 010°45'1312.5
2019-Nov-20 07:29N 59°42' E 010°36'1414.5
2019-Nov-20 06:30N 59°28' E 010°34'3115.3
2019-Nov-20 04:30N 58°58' E 010°42'1515.2
2019-Nov-20 03:30N 58°42' E 010°45'1616.1
2019-Nov-20 02:29N 58°27' E 010°55'4916.5
2019-Nov-19 23:30N 57°40' E 011°26'1615.9
2019-Nov-19 22:31N 57°26' E 011°38'2416.0
2019-Nov-19 21:00N 57°05' E 011°59'7216.0
2019-Nov-19 16:31N 55°57' E 012°43'16 7.8
2019-Nov-19 14:30N 55°42' E 012°36'0 0.0
2019-Nov-19 13:30N 55°42' E 012°36'0 0.0
2019-Nov-19 10:57N 55°42' E 012°36'0 0.0
2019-Nov-19 09:00N 55°42' E 012°36'18 9.2
2019-Nov-19 07:00N 56°00' E 012°40'7815.3
2019-Nov-19 01:55N 57°14' E 011°51'3816.0
2019-Nov-18 23:30N 57°47' E 011°15'1616.2
2019-Nov-18 22:30N 58°02' E 011°02'816.2
2019-Nov-18 22:00N 58°09' E 010°56'1415.9
2019-Nov-18 21:06N 58°22' E 010°45'1016.4
2019-Nov-18 20:30N 58°31' E 010°38'817.0
2019-Nov-18 20:00N 58°40' E 010°38'917.5
2019-Nov-18 19:30N 58°49' E 010°38'6017.2
2019-Nov-18 16:00N 59°49' E 010°34'714.6
2019-Nov-18 15:30N 59°54' E 010°44'1 0.2
2019-Nov-18 12:59N 59°54' E 010°45'0 0.0
2019-Nov-18 12:29N 59°54' E 010°45'0 0.0
2019-Nov-18 10:59N 59°54' E 010°45'0 0.0
2019-Nov-18 09:29N 59°54' E 010°45'4210.4
2019-Nov-18 05:30N 59°13' E 010°38'815.7
2019-Nov-18 05:00N 59°05' E 010°41'1515.3
2019-Nov-18 04:00N 58°50' E 010°44'815.3
2019-Nov-18 03:31N 58°42' E 010°45'2416.1
2019-Nov-18 02:00N 58°19' E 010°59'1717.2
2019-Nov-18 01:00N 58°03' E 011°09'2516.4
2019-Nov-17 23:30N 57°39' E 011°21'815.9
2019-Nov-17 23:00N 57°32' E 011°26'1616.0
2019-Nov-17 22:00N 57°16' E 011°35'7616.1
2019-Nov-17 17:17N 56°07' E 012°33'517.1
2019-Nov-17 17:00N 56°04' E 012°39'11 1.2
2019-Nov-17 07:31N 55°52' E 012°40'9115.1
2019-Nov-17 01:31N 57°18' E 011°45'6416.1
2019-Nov-16 21:30N 58°15' E 010°50'1616.3
2019-Nov-16 20:30N 58°30' E 010°38'1717.1
2019-Nov-16 19:30N 58°47' E 010°38'917.9
2019-Nov-16 19:00N 58°56' E 010°38'918.2
2019-Nov-16 18:30N 59°05' E 010°38'1818.4
2019-Nov-16 17:31N 59°24' E 010°33'918.0
2019-Nov-16 17:01N 59°32' E 010°36'1615.5
2019-Nov-16 16:00N 59°48' E 010°34'815.2
2019-Nov-16 15:30N 59°54' E 010°43'13 1.6
2019-Nov-16 07:31N 59°42' E 010°36'1414.4
2019-Nov-16 06:30N 59°28' E 010°34'4715.7
2019-Nov-16 03:30N 58°41' E 010°49'816.0
2019-Nov-16 03:00N 58°33' E 010°51'816.0
2019-Nov-16 02:30N 58°25' E 010°56'6817.0
2019-Nov-15 22:30N 57°22' E 011°43'8016.3
2019-Nov-15 17:38N 56°07' E 012°33'2511.9
2019-Nov-15 15:30N 55°42' E 012°36'0 0.2
2019-Nov-15 13:28N 55°42' E 012°36'0 0.0
2019-Nov-15 11:58N 55°42' E 012°36'0 0.0
2019-Nov-15 09:28N 55°42' E 012°36'0 0.1
2019-Nov-15 08:31N 55°42' E 012°36'1711.5
2019-Nov-15 07:00N 55°59' E 012°40'11216.0
2019-Nov-15 00:01N 57°40' E 011°13'2617.1
2019-Nov-14 22:31N 58°04' E 010°54'4715.6
2019-Nov-14 19:30N 58°50' E 010°37'816.2
2019-Nov-14 19:00N 58°58' E 010°38'917.1
2019-Nov-14 18:30N 59°06' E 010°38'917.3
2019-Nov-14 18:00N 59°15' E 010°37'917.3
2019-Nov-14 17:30N 59°23' E 010°33'31 4.4
2019-Nov-14 10:29N 59°54' E 010°45'27 6.9
2019-Nov-14 06:30N 59°27' E 010°34'3815.1
2019-Nov-14 04:00N 58°50' E 010°46'3316.3
2019-Nov-14 02:00N 58°18' E 011°00'4116.7
2019-Nov-13 23:30N 57°39' E 011°26'3215.8
2019-Nov-13 21:30N 57°11' E 011°54'8715.9
2019-Nov-13 16:00N 55°48' E 012°43'7 4.9
2019-Nov-13 14:29N 55°42' E 012°36'0 0.0
2019-Nov-13 13:56N 55°42' E 012°36'0 0.0
2019-Nov-13 12:29N 55°42' E 012°36'0 0.0
2019-Nov-13 11:29N 55°42' E 012°36'0 0.0
2019-Nov-13 09:59N 55°42' E 012°36'0 0.0
2019-Nov-13 09:29N 55°42' E 012°36'0 0.3
2019-Nov-13 08:30N 55°42' E 012°36'3112.5
2019-Nov-13 06:00N 56°13' E 012°27'6315.9
2019-Nov-13 02:01N 57°13' E 011°51'016.0
2019-Nov-13 02:00N 57°14' E 011°51'3316.5
2019-Nov-13 00:00N 57°42' E 011°20'917.0
2019-Nov-12 23:30N 57°50' E 011°13'2516.5
2019-Nov-12 22:00N 58°12' E 010°53'6416.0
2019-Nov-12 18:00N 59°15' E 010°36'3915.5
2019-Nov-12 15:30N 59°54' E 010°43'1 1.5
2019-Nov-12 14:59N 59°54' E 010°45'0 0.0
2019-Nov-12 13:59N 59°54' E 010°45'0 0.0
2019-Nov-12 13:29N 59°54' E 010°45'0 0.0
2019-Nov-12 12:59N 59°54' E 010°45'0 0.0
2019-Nov-12 11:59N 59°54' E 010°45'0 0.0
2019-Nov-12 11:29N 59°54' E 010°45'0 0.0
2019-Nov-12 09:59N 59°54' E 010°45'0 0.0
2019-Nov-12 08:59N 59°54' E 010°45'14 9.2
2019-Nov-12 07:30N 59°41' E 010°36'2114.3
2019-Nov-12 06:00N 59°20' E 010°36'3915.7
2019-Nov-12 03:30N 58°41' E 010°46'1615.7
2019-Nov-12 02:30N 58°26' E 010°56'1616.4
2019-Nov-12 01:30N 58°10' E 011°06'2415.9
2019-Nov-12 00:00N 57°48' E 011°20'4016.1
2019-Nov-11 21:30N 57°12' E 011°54'816.1
2019-Nov-11 21:00N 57°05' E 011°60'6016.0
2019-Nov-11 17:16N 56°07' E 012°33'517.6
2019-Nov-11 17:00N 56°04' E 012°38'816.5
2019-Nov-11 16:30N 55°56' E 012°43'15 9.8
2019-Nov-11 15:00N 55°42' E 012°36'0 0.0
2019-Nov-11 12:59N 55°42' E 012°36'0 0.0
2019-Nov-11 11:47N 55°42' E 012°36'0 0.0
2019-Nov-11 10:29N 55°42' E 012°36'0 0.0
2019-Nov-11 08:59N 55°42' E 012°36'3110.4
2019-Nov-11 06:00N 56°13' E 012°27'6415.6
2019-Nov-11 01:54N 57°14' E 011°51'1415.6
2019-Nov-11 01:00N 57°25' E 011°36'815.4
2019-Nov-11 00:31N 57°32' E 011°29'1615.9
2019-Nov-10 23:31N 57°46' E 011°16'1616.1
2019-Nov-10 22:30N 58°01' E 011°03'2616.8
2019-Nov-10 20:56N 58°25' E 010°42'4217.1
2019-Nov-10 18:30N 59°06' E 010°38'4217.0
2019-Nov-10 16:00N 59°48' E 010°34'8 1.1
2019-Nov-10 09:00N 59°54' E 010°45'  
Track history (hours):
 
Tides and Currents Weather Stations Pressure Air Temp Water Temp Dewpoint Dewpoint Depression Visibility Wind Speed Wind Dir Waves Ship Positions

Pearl Of Scandinavia

Last reported at 2019-Nov-20 08:30 UTC. Time now 2019-Nov-20 09:19 UTC.
Position N 59°54' E 010°45'.

Length 176.4 m; beam 34 m; draft 6.215 m.

Type: Ship. MMSI: 219945000.

Date/timePositionNaut miles runAvg speedWind from/ knotsBaromVisibWave heightAir tempDewpointWater temp
2019-Nov-20 08:30N 59°54' E 010°45'1312.5
2019-Nov-20 07:29N 59°42' E 010°36'1414.5
2019-Nov-20 06:30N 59°28' E 010°34'3115.3
2019-Nov-20 04:30N 58°58' E 010°42'1515.2
2019-Nov-20 03:30N 58°42' E 010°45'1616.1
2019-Nov-20 02:29N 58°27' E 010°55'4916.5
2019-Nov-19 23:30N 57°40' E 011°26'1615.9
2019-Nov-19 22:31N 57°26' E 011°38'2416.0
2019-Nov-19 21:00N 57°05' E 011°59'7216.0
2019-Nov-19 16:31N 55°57' E 012°43'16 7.8
2019-Nov-19 14:30N 55°42' E 012°36'0 0.0
2019-Nov-19 13:30N 55°42' E 012°36'0 0.0
2019-Nov-19 10:57N 55°42' E 012°36'0 0.0
2019-Nov-19 09:00N 55°42' E 012°36'18 9.2
2019-Nov-19 07:00N 56°00' E 012°40'7815.3
2019-Nov-19 01:55N 57°14' E 011°51'3816.0
2019-Nov-18 23:30N 57°47' E 011°15'1616.2
2019-Nov-18 22:30N 58°02' E 011°02'816.2
2019-Nov-18 22:00N 58°09' E 010°56'1415.9
2019-Nov-18 21:06N 58°22' E 010°45'1016.4
2019-Nov-18 20:30N 58°31' E 010°38'817.0
2019-Nov-18 20:00N 58°40' E 010°38'917.5
2019-Nov-18 19:30N 58°49' E 010°38'6017.2
2019-Nov-18 16:00N 59°49' E 010°34'714.6
2019-Nov-18 15:30N 59°54' E 010°44'1 0.2
2019-Nov-18 12:59N 59°54' E 010°45'0 0.0
2019-Nov-18 12:29N 59°54' E 010°45'0 0.0
2019-Nov-18 10:59N 59°54' E 010°45'0 0.0
2019-Nov-18 09:29N 59°54' E 010°45'4210.4
2019-Nov-18 05:30N 59°13' E 010°38'815.7
2019-Nov-18 05:00N 59°05' E 010°41'1515.3
2019-Nov-18 04:00N 58°50' E 010°44'815.3
2019-Nov-18 03:31N 58°42' E 010°45'2416.1
2019-Nov-18 02:00N 58°19' E 010°59'1717.2
2019-Nov-18 01:00N 58°03' E 011°09'2516.4
2019-Nov-17 23:30N 57°39' E 011°21'815.9
2019-Nov-17 23:00N 57°32' E 011°26'1616.0
2019-Nov-17 22:00N 57°16' E 011°35'7616.1
2019-Nov-17 17:17N 56°07' E 012°33'517.1
2019-Nov-17 17:00N 56°04' E 012°39'11 1.2
2019-Nov-17 07:31N 55°52' E 012°40'9115.1
2019-Nov-17 01:31N 57°18' E 011°45'6416.1
2019-Nov-16 21:30N 58°15' E 010°50'1616.3
2019-Nov-16 20:30N 58°30' E 010°38'1717.1
2019-Nov-16 19:30N 58°47' E 010°38'917.9
2019-Nov-16 19:00N 58°56' E 010°38'918.2
2019-Nov-16 18:30N 59°05' E 010°38'1818.4
2019-Nov-16 17:31N 59°24' E 010°33'918.0
2019-Nov-16 17:01N 59°32' E 010°36'1615.5
2019-Nov-16 16:00N 59°48' E 010°34'815.2
2019-Nov-16 15:30N 59°54' E 010°43'13 1.6
2019-Nov-16 07:31N 59°42' E 010°36'1414.4
2019-Nov-16 06:30N 59°28' E 010°34'4715.7
2019-Nov-16 03:30N 58°41' E 010°49'816.0
2019-Nov-16 03:00N 58°33' E 010°51'816.0
2019-Nov-16 02:30N 58°25' E 010°56'6817.0
2019-Nov-15 22:30N 57°22' E 011°43'8016.3
2019-Nov-15 17:38N 56°07' E 012°33'2511.9
2019-Nov-15 15:30N 55°42' E 012°36'0 0.2
2019-Nov-15 13:28N 55°42' E 012°36'0 0.0
2019-Nov-15 11:58N 55°42' E 012°36'0 0.0
2019-Nov-15 09:28N 55°42' E 012°36'0 0.1
2019-Nov-15 08:31N 55°42' E 012°36'1711.5
2019-Nov-15 07:00N 55°59' E 012°40'11216.0
2019-Nov-15 00:01N 57°40' E 011°13'2617.1
2019-Nov-14 22:31N 58°04' E 010°54'4715.6
2019-Nov-14 19:30N 58°50' E 010°37'816.2
2019-Nov-14 19:00N 58°58' E 010°38'917.1
2019-Nov-14 18:30N 59°06' E 010°38'917.3
2019-Nov-14 18:00N 59°15' E 010°37'917.3
2019-Nov-14 17:30N 59°23' E 010°33'31 4.4
2019-Nov-14 10:29N 59°54' E 010°45'27 6.9
2019-Nov-14 06:30N 59°27' E 010°34'3815.1
2019-Nov-14 04:00N 58°50' E 010°46'3316.3
2019-Nov-14 02:00N 58°18' E 011°00'4116.7
2019-Nov-13 23:30N 57°39' E 011°26'3215.8
2019-Nov-13 21:30N 57°11' E 011°54'8715.9
2019-Nov-13 16:00N 55°48' E 012°43'7 4.9
2019-Nov-13 14:29N 55°42' E 012°36'0 0.0
2019-Nov-13 13:56N 55°42' E 012°36'0 0.0
2019-Nov-13 12:29N 55°42' E 012°36'0 0.0
2019-Nov-13 11:29N 55°42' E 012°36'0 0.0
2019-Nov-13 09:59N 55°42' E 012°36'0 0.0
2019-Nov-13 09:29N 55°42' E 012°36'0 0.3
2019-Nov-13 08:30N 55°42' E 012°36'3112.5
2019-Nov-13 06:00N 56°13' E 012°27'6315.9
2019-Nov-13 02:01N 57°13' E 011°51'016.0
2019-Nov-13 02:00N 57°14' E 011°51'3316.5
2019-Nov-13 00:00N 57°42' E 011°20'917.0
2019-Nov-12 23:30N 57°50' E 011°13'2516.5
2019-Nov-12 22:00N 58°12' E 010°53'6416.0
2019-Nov-12 18:00N 59°15' E 010°36'3915.5
2019-Nov-12 15:30N 59°54' E 010°43'1 1.5
2019-Nov-12 14:59N 59°54' E 010°45'0 0.0
2019-Nov-12 13:59N 59°54' E 010°45'0 0.0
2019-Nov-12 13:29N 59°54' E 010°45'0 0.0
2019-Nov-12 12:59N 59°54' E 010°45'0 0.0
2019-Nov-12 11:59N 59°54' E 010°45'0 0.0
2019-Nov-12 11:29N 59°54' E 010°45'0 0.0
2019-Nov-12 09:59N 59°54' E 010°45'0 0.0
2019-Nov-12 08:59N 59°54' E 010°45'14 9.2
2019-Nov-12 07:30N 59°41' E 010°36'2114.3
2019-Nov-12 06:00N 59°20' E 010°36'3915.7
2019-Nov-12 03:30N 58°41' E 010°46'1615.7
2019-Nov-12 02:30N 58°26' E 010°56'1616.4
2019-Nov-12 01:30N 58°10' E 011°06'2415.9
2019-Nov-12 00:00N 57°48' E 011°20'4016.1
2019-Nov-11 21:30N 57°12' E 011°54'816.1
2019-Nov-11 21:00N 57°05' E 011°60'6016.0
2019-Nov-11 17:16N 56°07' E 012°33'517.6
2019-Nov-11 17:00N 56°04' E 012°38'816.5
2019-Nov-11 16:30N 55°56' E 012°43'15 9.8
2019-Nov-11 15:00N 55°42' E 012°36'0 0.0
2019-Nov-11 12:59N 55°42' E 012°36'0 0.0
2019-Nov-11 11:47N 55°42' E 012°36'0 0.0
2019-Nov-11 10:29N 55°42' E 012°36'0 0.0
2019-Nov-11 08:59N 55°42' E 012°36'3110.4
2019-Nov-11 06:00N 56°13' E 012°27'6415.6
2019-Nov-11 01:54N 57°14' E 011°51'1415.6
2019-Nov-11 01:00N 57°25' E 011°36'815.4
2019-Nov-11 00:31N 57°32' E 011°29'1615.9
2019-Nov-10 23:31N 57°46' E 011°16'1616.1
2019-Nov-10 22:30N 58°01' E 011°03'2616.8
2019-Nov-10 20:56N 58°25' E 010°42'4217.1
2019-Nov-10 18:30N 59°06' E 010°38'4217.0
2019-Nov-10 16:00N 59°48' E 010°34'8 1.1
2019-Nov-10 09:00N 59°54' E 010°45'  

Dump ship's entire track history